Time;durP1;ratioP1;P1;durP2;ratioP2;P2;SDS_P1;SDS_P2;PMS_P1;PMS_P2;Temp;Humidity;BMP_temperature;BMP_pressure;BME280_temperature;BME280_humidity;BME280_pressure;Samples;Min_cycle;Max_cycle;Signal;HPM_P1;HPM_P2
2023/09/24 00:00:10;;;;;;;;;;;20.20;75.60;;;;;;5098783;28;19928;-70
2023/09/24 00:02:36;;;;;;;;;;;20.20;75.60;;;;;;5117573;28;19927;-70
2023/09/24 00:05:01;;;;;;;;;;;20.20;75.60;;;;;;5116475;28;19931;-70
2023/09/24 00:07:27;;;;;;;;;;;20.20;75.60;;;;;;5117103;28;19934;-70
2023/09/24 00:09:52;;;;;;;;;;;20.20;75.60;;;;;;5117126;28;20293;-70
2023/09/24 00:12:18;;;;;;;;;;;20.20;75.60;;;;;;5116831;28;19931;-70
2023/09/24 00:14:43;;;;;;;;;;;20.20;75.60;;;;;;5116819;28;19924;-70
2023/09/24 00:17:10;;;;;;;;;;;20.20;75.60;;;;;;5098929;28;20004;-70
2023/09/24 00:19:35;;;;;;;;;;;20.20;75.50;;;;;;5097780;28;19924;-70
2023/09/24 00:22:03;;;;;;;;;;;20.20;75.60;;;;;;5117246;28;19947;-70
2023/09/24 00:24:28;;;;;;;;;;;20.20;75.50;;;;;;5117260;28;19950;-70
2023/09/24 00:26:54;;;;;;;;;;;20.10;76.10;;;;;;5115993;28;19923;-70
2023/09/24 00:29:21;;;;;;;;;;;20.10;75.50;;;;;;5117090;28;19958;-70
2023/09/24 00:31:46;;;;;;;;;;;20.10;75.50;;;;;;5116270;28;20014;-70
2023/09/24 00:34:12;;;;;;;;;;;20.20;75.50;;;;;;5115921;28;20007;-70
2023/09/24 00:36:37;;;;;;;;;;;20.10;75.50;;;;;;5116192;28;20375;-70
2023/09/24 00:39:03;;;;;;;;;;;20.10;75.50;;;;;;5098708;28;19924;-70
2023/09/24 00:41:28;;;;;;;;;;;20.10;75.50;;;;;;5097745;28;19976;-70
2023/09/24 00:43:54;;;;;;;;;;;20.20;75.50;;;;;;5098199;28;19930;-70
2023/09/24 00:46:21;;;;;;;;;;;20.10;75.50;;;;;;5116783;28;19930;-70
2023/09/24 00:48:47;;;;;;;;;;;20.10;75.50;;;;;;5097783;28;19966;-70
2023/09/24 00:51:12;;;;;;;;;;;20.10;75.50;;;;;;5098359;28;19972;-70
2023/09/24 00:53:38;;;;;;;;;;;20.10;75.50;;;;;;5116337;28;20375;-70
2023/09/24 00:56:04;;;;;;;;;;;20.10;75.40;;;;;;5115468;28;20477;-70
2023/09/24 00:58:30;;;;;;;;;;;20.10;75.50;;;;;;5116466;28;19934;-70
2023/09/24 01:00:57;;;;;;;;;;;20.10;75.50;;;;;;5116441;28;19924;-70
2023/09/24 01:03:22;;;;;;;;;;;20.10;75.50;;;;;;5115708;28;19928;-70
2023/09/24 01:05:49;;;;;;;;;;;20.10;75.40;;;;;;5115896;28;19927;-70
2023/09/24 01:08:17;;;;;;;;;;;20.10;75.40;;;;;;5115798;28;19947;-70
2023/09/24 01:10:47;;;;;;;;;;;20.10;75.40;;;;;;5096817;28;19919;-70
2023/09/24 01:13:15;;;;;;;;;;;20.10;75.50;;;;;;5114482;28;20332;-70
2023/09/24 01:15:44;;;;;;;;;;;20.10;75.50;;;;;;5114644;28;20057;-70
2023/09/24 01:18:09;;;;;;;;;;;20.10;75.40;;;;;;5116129;28;20397;-70
2023/09/24 01:20:36;;;;;;;;;;;20.00;75.30;;;;;;5114951;28;19924;-70
2023/09/24 01:23:04;;;;;;;;;;;20.10;75.40;;;;;;5115122;28;19923;-70
2023/09/24 01:25:35;;;;;;;;;;;20.00;75.30;;;;;;5115442;28;20002;-70
2023/09/24 01:28:03;;;;;;;;;;;20.00;75.40;;;;;;5115724;28;20413;-70
2023/09/24 01:30:28;;;;;;;;;;;20.00;75.40;;;;;;5115156;28;19930;-70
2023/09/24 01:32:54;;;;;;;;;;;20.00;75.30;;;;;;5115274;28;20018;-70
2023/09/24 01:35:25;;;;;;;;;;;20.00;75.30;;;;;;5115268;28;20417;-70
2023/09/24 01:37:52;;;;;;;;;;;20.00;75.40;;;;;;5114451;28;19924;-70
2023/09/24 01:40:21;;;;;;;;;;;20.00;75.30;;;;;;5112894;28;19924;-70
2023/09/24 01:42:47;;;;;;;;;;;20.00;75.30;;;;;;5114551;28;20018;-70
2023/09/24 01:45:13;;;;;;;;;;;20.00;75.30;;;;;;5114542;28;20023;-70
2023/09/24 01:47:39;;;;;;;;;;;20.00;75.30;;;;;;5115393;28;19946;-70
2023/09/24 01:50:08;;;;;;;;;;;20.00;75.30;;;;;;5115343;28;20442;-70
2023/09/24 01:52:34;;;;;;;;;;;20.00;75.30;;;;;;5114532;28;19959;-70
2023/09/24 01:55:00;;;;;;;;;;;20.00;75.30;;;;;;5098358;28;19924;-70
2023/09/24 01:57:26;;;;;;;;;;;20.00;75.30;;;;;;5094080;28;19977;-70
2023/09/24 01:59:51;;;;;;;;;;;20.00;75.30;;;;;;5076526;28;19932;-70
2023/09/24 02:02:17;;;;;;;;;;;20.00;75.40;;;;;;5094103;28;19934;-70
2023/09/24 02:04:42;;;;;;;;;;;20.00;75.30;;;;;;5093300;28;20011;-70
2023/09/24 02:07:08;;;;;;;;;;;20.00;75.30;;;;;;5077848;28;20376;-70
2023/09/24 02:09:35;;;;;;;;;;;20.00;75.40;;;;;;5115073;28;19924;-70
2023/09/24 02:12:00;;;;;;;;;;;20.00;75.30;;;;;;5114411;28;19943;-70
2023/09/24 02:14:26;;;;;;;;;;;20.00;75.30;;;;;;5114988;28;20287;-70
2023/09/24 02:16:52;;;;;;;;;;;20.00;75.20;;;;;;5114684;28;19924;-70
2023/09/24 02:19:17;;;;;;;;;;;20.00;75.30;;;;;;5114163;28;20272;-69
2023/09/24 02:21:43;;;;;;;;;;;20.00;75.30;;;;;;5113410;28;19965;-70
2023/09/24 02:24:09;;;;;;;;;;;19.90;75.20;;;;;;5115100;28;19919;-70
2023/09/24 02:26:34;;;;;;;;;;;20.00;75.30;;;;;;5113775;28;20365;-69
2023/09/24 02:29:00;;;;;;;;;;;20.00;75.20;;;;;;5114704;28;19969;-69
2023/09/24 02:31:26;;;;;;;;;;;19.90;75.20;;;;;;5114208;28;20363;-70
2023/09/24 02:33:52;;;;;;;;;;;19.90;75.20;;;;;;5113843;28;20027;-70
2023/09/24 02:36:17;;;;;;;;;;;19.90;75.20;;;;;;5114261;28;20006;-69
2023/09/24 02:38:43;;;;;;;;;;;19.90;75.20;;;;;;5114139;28;20003;-69
2023/09/24 02:41:11;;;;;;;;;;;19.90;75.30;;;;;;5114120;28;19949;-70
2023/09/24 02:43:37;;;;;;;;;;;19.90;75.20;;;;;;5114463;28;19932;-70
2023/09/24 02:46:05;;;;;;;;;;;19.90;75.20;;;;;;5114494;28;19930;-70
2023/09/24 02:48:32;;;;;;;;;;;19.90;75.20;;;;;;5113900;28;20022;-69
2023/09/24 02:51:05;;;;;;;;;;;19.90;75.20;;;;;;5113910;28;19924;-70
2023/09/24 02:53:30;;;;;;;;;;;19.90;75.20;;;;;;5114406;28;19924;-69
2023/09/24 02:55:56;;;;;;;;;;;19.90;75.20;;;;;;5113104;28;19930;-70
2023/09/24 02:58:21;;;;;;;;;;;19.90;75.40;;;;;;5114221;28;20337;-70
2023/09/24 03:00:47;;;;;;;;;;;19.90;75.20;;;;;;5113360;28;19923;-70
2023/09/24 03:03:15;;;;;;;;;;;19.90;75.20;;;;;;5096145;28;19967;-70
2023/09/24 03:05:41;;;;;;;;;;;19.90;75.20;;;;;;5113707;28;19930;-70
2023/09/24 03:08:09;;;;;;;;;;;19.90;75.20;;;;;;5113509;28;20299;-70
2023/09/24 03:10:35;;;;;;;;;;;19.90;75.20;;;;;;5113538;28;20014;-70
2023/09/24 03:13:02;;;;;;;;;;;19.90;75.20;;;;;;5096051;28;19923;-70
2023/09/24 03:15:27;;;;;;;;;;;19.90;75.20;;;;;;5113422;28;19923;-70
2023/09/24 03:17:53;;;;;;;;;;;19.90;75.20;;;;;;5113346;28;19928;-70
2023/09/24 03:20:19;;;;;;;;;;;19.90;75.20;;;;;;5094975;28;19930;-70
2023/09/24 03:22:51;;;;;;;;;;;19.90;75.20;;;;;;5112828;28;20396;-71
2023/09/24 03:25:17;;;;;;;;;;;19.90;75.20;;;;;;5105249;28;19932;-70
2023/09/24 03:27:43;;;;;;;;;;;19.90;75.20;;;;;;5093142;28;19928;-70
2023/09/24 03:30:09;;;;;;;;;;;19.90;75.20;;;;;;5092628;28;19924;-70
2023/09/24 03:32:36;;;;;;;;;;;19.90;75.30;;;;;;5093051;28;19924;-69
2023/09/24 03:35:03;;;;;;;;;;;19.80;75.20;;;;;;5093390;28;19924;-70
2023/09/24 03:37:29;;;;;;;;;;;19.80;75.20;;;;;;5074034;28;20330;-69
2023/09/24 03:39:54;;;;;;;;;;;19.80;75.10;;;;;;5093002;28;19924;-70
2023/09/24 03:42:20;;;;;;;;;;;19.80;75.10;;;;;;5075510;28;19924;-69
2023/09/24 03:44:45;;;;;;;;;;;19.80;75.10;;;;;;5092405;28;20299;-69
2023/09/24 03:47:11;;;;;;;;;;;19.80;75.20;;;;;;5093294;28;19928;-69
2023/09/24 03:49:36;;;;;;;;;;;19.80;75.20;;;;;;5093049;28;19924;-69
2023/09/24 03:52:02;;;;;;;;;;;19.80;75.10;;;;;;5092308;28;19928;-69
2023/09/24 03:54:28;;;;;;;;;;;19.80;75.20;;;;;;5093154;28;19967;-69
2023/09/24 03:56:54;;;;;;;;;;;19.80;75.10;;;;;;5074026;28;19971;-69
2023/09/24 03:59:19;;;;;;;;;;;19.80;75.10;;;;;;5093033;28;19967;-70
2023/09/24 04:01:45;;;;;;;;;;;19.80;75.10;;;;;;5086450;28;19924;-69
2023/09/24 04:04:12;;;;;;;;;;;19.90;75.20;;;;;;5094168;28;20124;-69
2023/09/24 04:06:38;;;;;;;;;;;19.80;75.10;;;;;;5112705;28;19924;-69
2023/09/24 04:09:04;;;;;;;;;;;19.80;75.20;;;;;;5113393;28;19974;-69
2023/09/24 04:11:29;;;;;;;;;;;19.80;75.20;;;;;;5094446;28;19969;-69
2023/09/24 04:13:55;;;;;;;;;;;19.80;75.20;;;;;;5094593;28;20318;-69
2023/09/24 04:16:22;;;;;;;;;;;19.90;75.30;;;;;;5113235;28;19927;-69
2023/09/24 04:18:47;;;;;;;;;;;19.80;75.20;;;;;;5112052;28;19938;-69
2023/09/24 04:21:16;;;;;;;;;;;19.80;75.20;;;;;;5113440;28;19927;-69
2023/09/24 04:23:42;;;;;;;;;;;19.90;75.30;;;;;;5112840;28;19924;-70
2023/09/24 04:26:16;;;;;;;;;;;19.90;75.20;;;;;;5112474;28;19928;-69
2023/09/24 04:28:41;;;;;;;;;;;19.90;75.20;;;;;;5112746;28;20393;-70
2023/09/24 04:31:07;;;;;;;;;;;19.90;75.20;;;;;;5113374;28;19978;-70
2023/09/24 04:33:34;;;;;;;;;;;19.90;75.20;;;;;;5112673;28;19923;-70
2023/09/24 04:35:59;;;;;;;;;;;19.90;75.20;;;;;;5113224;28;19924;-70
2023/09/24 04:38:25;;;;;;;;;;;20.00;75.20;;;;;;5112923;28;19969;-70
2023/09/24 04:40:50;;;;;;;;;;;19.90;75.20;;;;;;5093729;28;20358;-70
2023/09/24 04:43:18;;;;;;;;;;;19.90;75.20;;;;;;5112958;28;19993;-70
2023/09/24 04:45:43;;;;;;;;;;;20.00;75.20;;;;;;5115580;28;19930;-70
2023/09/24 04:48:09;;;;;;;;;;;20.00;75.20;;;;;;5116011;28;20006;-70
2023/09/24 04:50:35;;;;;;;;;;;20.00;75.10;;;;;;5098060;28;19924;-70
2023/09/24 04:53:05;;;;;;;;;;;20.00;75.10;;;;;;5098719;28;19924;-70
2023/09/24 04:55:31;;;;;;;;;;;20.00;75.10;;;;;;5098042;28;19976;-70
2023/09/24 04:57:56;;;;;;;;;;;20.00;75.10;;;;;;5098139;28;19928;-70
2023/09/24 05:00:22;;;;;;;;;;;20.00;75.10;;;;;;5115875;28;19993;-70
2023/09/24 05:02:47;;;;;;;;;;;20.00;75.10;;;;;;5116351;28;19927;-70
2023/09/24 05:05:15;;;;;;;;;;;20.00;75.10;;;;;;5116441;28;20264;-70
2023/09/24 05:07:40;;;;;;;;;;;20.00;75.00;;;;;;5097169;28;19924;-70
2023/09/24 05:10:06;;;;;;;;;;;20.00;75.10;;;;;;5116424;28;20314;-70
2023/09/24 05:12:32;;;;;;;;;;;20.00;75.00;;;;;;5116018;28;19924;-70
2023/09/24 05:14:57;;;;;;;;;;;20.00;75.00;;;;;;5095442;28;20060;-70
2023/09/24 05:17:23;;;;;;;;;;;20.00;75.00;;;;;;5116018;28;20275;-70
2023/09/24 05:19:48;;;;;;;;;;;20.00;75.00;;;;;;5097273;28;19928;-70
2023/09/24 05:22:14;;;;;;;;;;;20.00;75.00;;;;;;5115428;28;19924;-69
2023/09/24 05:24:39;;;;;;;;;;;20.00;75.00;;;;;;5115843;28;19931;-69
2023/09/24 05:27:05;;;;;;;;;;;20.00;75.00;;;;;;5097504;28;19992;-69
2023/09/24 05:29:30;;;;;;;;;;;20.00;75.00;;;;;;5115196;28;19928;-69
2023/09/24 05:31:56;;;;;;;;;;;20.10;75.10;;;;;;5097089;28;19970;-70
2023/09/24 05:34:21;;;;;;;;;;;20.00;75.00;;;;;;5115925;28;19927;-69
2023/09/24 05:36:49;;;;;;;;;;;20.00;75.00;;;;;;5114566;28;20272;-69
2023/09/24 05:39:15;;;;;;;;;;;20.00;75.00;;;;;;5115745;28;19946;-69
2023/09/24 05:41:40;;;;;;;;;;;20.00;75.00;;;;;;5097385;28;19930;-69
2023/09/24 05:44:06;;;;;;;;;;;20.00;75.00;;;;;;5114958;28;20014;-69
2023/09/24 05:46:31;;;;;;;;;;;20.00;75.00;;;;;;5097385;28;19930;-69
2023/09/24 05:48:58;;;;;;;;;;;20.00;75.00;;;;;;5115476;28;19976;-70
2023/09/24 05:51:24;;;;;;;;;;;20.00;75.00;;;;;;5114895;28;19924;-70
2023/09/24 05:53:51;;;;;;;;;;;20.00;75.00;;;;;;5115369;28;19924;-70
2023/09/24 05:56:17;;;;;;;;;;;20.00;75.00;;;;;;5115314;28;19959;-70
2023/09/24 05:58:42;;;;;;;;;;;20.00;75.00;;;;;;5114395;28;19971;-70
2023/09/24 06:01:12;;;;;;;;;;;20.00;75.00;;;;;;5115580;28;20291;-70
2023/09/24 06:03:38;;;;;;;;;;;20.00;75.00;;;;;;5095805;28;19924;-69
2023/09/24 06:06:06;;;;;;;;;;;20.00;75.00;;;;;;5114967;28;19931;-70
2023/09/24 06:08:32;;;;;;;;;;;20.00;75.00;;;;;;5115209;28;20379;-70
2023/09/24 06:10:57;;;;;;;;;;;20.00;75.10;;;;;;5113849;28;19931;-69
2023/09/24 06:13:23;;;;;;;;;;;20.00;75.00;;;;;;5114880;28;19931;-69
2023/09/24 06:15:48;;;;;;;;;;;20.00;75.00;;;;;;5114546;28;20378;-69
2023/09/24 06:18:14;;;;;;;;;;;20.00;75.00;;;;;;5114452;28;19931;-69
2023/09/24 06:20:40;;;;;;;;;;;20.00;75.00;;;;;;5114613;28;19924;-69
2023/09/24 06:23:05;;;;;;;;;;;20.00;75.10;;;;;;5114582;28;19927;-69
2023/09/24 06:25:31;;;;;;;;;;;20.00;75.00;;;;;;5113960;28;19928;-69
2023/09/24 06:27:56;;;;;;;;;;;20.00;75.00;;;;;;5114539;28;19978;-69
2023/09/24 06:30:22;;;;;;;;;;;20.00;75.10;;;;;;5114563;28;19998;-69
2023/09/24 06:32:47;;;;;;;;;;;20.00;75.00;;;;;;5095586;28;19989;-69
2023/09/24 06:35:13;;;;;;;;;;;20.00;75.00;;;;;;5114767;28;19963;-69
2023/09/24 06:37:38;;;;;;;;;;;20.00;75.00;;;;;;5114051;28;19981;-69
2023/09/24 06:40:04;;;;;;;;;;;20.00;75.00;;;;;;5113913;28;19931;-69
2023/09/24 06:42:30;;;;;;;;;;;19.90;75.00;;;;;;5114730;28;19946;-68
2023/09/24 06:44:55;;;;;;;;;;;20.00;75.00;;;;;;5114352;28;19978;-69
2023/09/24 06:47:21;;;;;;;;;;;20.00;75.00;;;;;;5113936;28;20062;-69
2023/09/24 06:49:49;;;;;;;;;;;20.00;75.00;;;;;;5114028;28;20295;-69
2023/09/24 06:52:15;;;;;;;;;;;20.00;75.10;;;;;;5114361;28;20363;-66
2023/09/24 06:54:40;;;;;;;;;;;20.00;75.00;;;;;;5113361;28;19927;-70
2023/09/24 06:57:06;;;;;;;;;;;20.00;75.00;;;;;;5114443;28;20390;-67
2023/09/24 06:59:31;;;;;;;;;;;20.00;75.00;;;;;;5096236;28;19969;-68
2023/09/24 07:01:57;;;;;;;;;;;20.00;75.00;;;;;;5113123;28;19926;-66
2023/09/24 07:04:22;;;;;;;;;;;20.00;75.00;;;;;;5116660;27;19931;-67
2023/09/24 07:06:49;;;;;;;;;;;20.00;75.00;;;;;;5109917;28;19931;-67
2023/09/24 07:09:16;;;;;;;;;;;20.10;75.20;;;;;;5113401;28;19985;-68
2023/09/24 07:11:41;;;;;;;;;;;20.10;75.20;;;;;;5113389;28;19923;-69
2023/09/24 07:14:07;;;;;;;;;;;20.10;75.10;;;;;;5095178;28;20691;-69
2023/09/24 07:16:32;;;;;;;;;;;20.20;75.20;;;;;;5113764;28;19969;-69
2023/09/24 07:18:58;;;;;;;;;;;20.20;75.20;;;;;;5113473;28;19973;-69
2023/09/24 07:21:25;;;;;;;;;;;20.20;75.20;;;;;;5094752;28;19923;-67
2023/09/24 07:23:52;;;;;;;;;;;20.20;75.20;;;;;;5113443;28;19967;-66
2023/09/24 07:26:18;;;;;;;;;;;20.20;75.20;;;;;;5115131;27;19924;-67
2023/09/24 07:28:43;;;;;;;;;;;20.30;75.20;;;;;;5110625;28;19949;-65
2023/09/24 07:31:13;;;;;;;;;;;20.30;75.20;;;;;;5113234;28;19927;-64
2023/09/24 07:33:39;;;;;;;;;;;20.30;75.20;;;;;;5112415;28;19931;-64
2023/09/24 07:36:05;;;;;;;;;;;20.30;75.10;;;;;;5112084;28;19947;-64
2023/09/24 07:38:30;;;;;;;;;;;20.40;75.20;;;;;;5112126;28;19996;-64
2023/09/24 07:40:56;;;;;;;;;;;20.40;75.20;;;;;;5105198;28;20022;-64
2023/09/24 07:43:22;;;;;;;;;;;20.40;75.20;;;;;;5111958;28;19927;-65
2023/09/24 07:45:47;;;;;;;;;;;20.40;75.20;;;;;;5112710;28;19924;-66
2023/09/24 07:48:14;;;;;;;;;;;20.40;75.30;;;;;;5113183;28;20397;-65
2023/09/24 07:50:41;;;;;;;;;;;20.50;75.30;;;;;;5093772;28;20236;-65
2023/09/24 07:53:06;;;;;;;;;;;20.50;75.30;;;;;;5112420;28;20010;-64
2023/09/24 07:55:32;;;;;;;;;;;20.50;75.30;;;;;;5113080;28;20016;-65
2023/09/24 07:57:57;;;;;;;;;;;20.50;75.30;;;;;;5094128;28;20327;-65
2023/09/24 08:00:23;;;;;;;;;;;20.60;75.30;;;;;;5113410;28;19924;-67
2023/09/24 08:02:48;;;;;;;;;;;20.60;75.30;;;;;;5112770;28;19927;-67
2023/09/24 08:05:15;;;;;;;;;;;20.60;75.30;;;;;;5112582;28;20010;-66
2023/09/24 08:07:40;;;;;;;;;;;20.60;75.20;;;;;;5112799;28;20440;-65
2023/09/24 08:10:06;;;;;;;;;;;20.70;75.20;;;;;;5112579;28;19919;-65
2023/09/24 08:12:31;;;;;;;;;;;20.70;75.30;;;;;;5113434;28;20015;-65
2023/09/24 08:14:57;;;;;;;;;;;20.70;75.20;;;;;;5112080;28;20260;-65
2023/09/24 08:17:22;;;;;;;;;;;20.70;75.20;;;;;;5111432;28;19977;-67
2023/09/24 08:19:48;;;;;;;;;;;20.70;75.20;;;;;;5112841;27;19932;-68
2023/09/24 08:22:13;;;;;;;;;;;20.80;75.20;;;;;;5116505;28;19927;-66
2023/09/24 08:24:39;;;;;;;;;;;20.80;75.20;;;;;;5097207;28;19920;-65
2023/09/24 08:27:04;;;;;;;;;;;20.80;75.10;;;;;;5117188;28;20014;-66
2023/09/24 08:29:30;;;;;;;;;;;20.80;75.20;;;;;;5116520;28;19919;-66
2023/09/24 08:31:55;;;;;;;;;;;20.90;75.20;;;;;;5115529;28;19970;-66
2023/09/24 08:34:21;;;;;;;;;;;20.90;75.20;;;;;;5098537;28;19927;-66
2023/09/24 08:36:46;;;;;;;;;;;20.90;75.20;;;;;;5116359;28;20011;-66
2023/09/24 08:39:14;;;;;;;;;;;20.90;75.10;;;;;;5116427;28;19976;-66
2023/09/24 08:41:43;;;;;;;;;;;20.90;75.10;;;;;;5116314;28;20018;-66
2023/09/24 08:44:08;;;;;;;;;;;21.00;75.10;;;;;;5116905;28;19924;-66
2023/09/24 08:46:34;;;;;;;;;;;21.00;75.10;;;;;;5097705;28;20275;-66
2023/09/24 08:49:00;;;;;;;;;;;21.00;75.60;;;;;;5116739;28;19923;-66
2023/09/24 08:51:25;;;;;;;;;;;21.00;75.00;;;;;;5098187;28;19924;-66
2023/09/24 08:53:51;;;;;;;;;;;21.00;75.40;;;;;;5115707;28;20264;-66
2023/09/24 08:56:20;;;;;;;;;;;21.10;74.80;;;;;;5098173;28;20019;-66
2023/09/24 08:58:46;;;;;;;;;;;21.10;74.80;;;;;;5116470;28;19974;-66
2023/09/24 09:01:11;;;;;;;;;;;21.10;74.70;;;;;;5115972;28;19967;-67
2023/09/24 09:03:37;;;;;;;;;;;21.10;74.80;;;;;;5116401;28;20034;-66
2023/09/24 09:06:03;;;;;;;;;;;21.10;74.70;;;;;;5098038;28;19931;-66
2023/09/24 09:08:30;;;;;;;;;;;21.10;74.70;;;;;;5115710;28;20410;-66
2023/09/24 09:10:56;;;;;;;;;;;21.10;74.70;;;;;;5081353;28;19924;-67
2023/09/24 09:13:22;;;;;;;;;;;21.10;74.60;;;;;;5076780;28;20393;-67
2023/09/24 09:15:49;;;;;;;;;;;21.10;74.60;;;;;;5095388;28;19928;-68
2023/09/24 09:18:25;;;;;;;;;;;21.10;74.70;;;;;;5077231;28;19942;-67
2023/09/24 09:20:50;;;;;;;;;;;21.10;74.80;;;;;;5094537;28;19928;-66
2023/09/24 09:23:18;;;;;;;;;;;21.10;74.70;;;;;;5095936;28;19924;-66
2023/09/24 09:25:52;;;;;;;;;;;21.10;74.80;;;;;;5077214;28;19920;-66
2023/09/24 09:28:21;;;;;;;;;;;21.20;74.80;;;;;;5076541;28;19924;-67
2023/09/24 09:31:05;;;;;;;;;;;21.20;74.80;;;;;;5094894;28;19920;-67
2023/09/24 09:33:32;;;;;;;;;;;21.10;74.70;;;;;;5077279;28;19924;-65
2023/09/24 09:35:58;;;;;;;;;;;21.20;74.70;;;;;;5094605;28;19946;-66
2023/09/24 09:38:23;;;;;;;;;;;21.20;74.70;;;;;;5102457;27;19924;-69
2023/09/24 09:40:56;;;;;;;;;;;21.20;74.60;;;;;;5114736;28;19928;-65
2023/09/24 09:43:22;;;;;;;;;;;21.20;74.80;;;;;;5114372;28;19923;-65
2023/09/24 09:45:48;;;;;;;;;;;21.20;74.80;;;;;;5096701;28;19963;-65
2023/09/24 09:48:14;;;;;;;;;;;21.20;74.80;;;;;;5101960;28;19958;-66
2023/09/24 09:50:41;;;;;;;;;;;21.30;74.90;;;;;;5095813;28;20144;-65
2023/09/24 09:53:07;;;;;;;;;;;21.30;74.90;;;;;;5130784;27;19924;-66
2023/09/24 09:55:42;;;;;;;;;;;21.30;74.90;;;;;;5096891;28;19947;-65
2023/09/24 09:58:09;;;;;;;;;;;21.30;74.90;;;;;;5115739;28;20018;-68
2023/09/24 10:00:34;;;;;;;;;;;21.20;74.90;;;;;;5115139;28;19923;-65
2023/09/24 10:03:00;;;;;;;;;;;21.30;74.90;;;;;;5114756;28;20428;-66
2023/09/24 10:05:25;;;;;;;;;;;21.30;74.90;;;;;;5114885;28;20011;-66
2023/09/24 10:07:50;;;;;;;;;;;21.30;74.90;;;;;;5115113;28;19924;-64
2023/09/24 10:10:31;;;;;;;;;;;21.30;74.90;;;;;;5114588;28;19974;-67
2023/09/24 10:13:01;;;;;;;;;;;21.30;74.90;;;;;;5114736;28;19928;-67
2023/09/24 10:15:27;;;;;;;;;;;21.40;74.90;;;;;;5115064;28;20411;-68
2023/09/24 10:18:11;;;;;;;;;;;21.40;74.90;;;;;;5113667;28;19963;-68
2023/09/24 10:20:49;;;;;;;;;;;21.40;74.90;;;;;;5114413;28;20303;-69
2023/09/24 10:23:30;;;;;;;;;;;21.40;74.90;;;;;;5096369;28;20280;-67
2023/09/24 10:26:00;;;;;;;;;;;21.40;74.90;;;;;;5113528;28;20278;-66
2023/09/24 10:28:44;;;;;;;;;;;21.40;74.90;;;;;;5114539;28;19931;-66
2023/09/24 10:31:12;;;;;;;;;;;21.40;74.90;;;;;;5114259;28;20371;-66
2023/09/24 10:33:49;;;;;;;;;;;21.40;74.90;;;;;;5115029;28;19923;-67
2023/09/24 10:36:18;;;;;;;;;;;21.40;74.90;;;;;;5114513;28;19927;-67
2023/09/24 10:38:59;;;;;;;;;;;21.40;74.90;;;;;;5113315;28;19924;-66
2023/09/24 10:41:25;;;;;;;;;;;21.40;74.90;;;;;;5114523;28;20016;-68
2023/09/24 10:44:13;;;;;;;;;;;21.40;74.90;;;;;;5113700;28;19977;-67
2023/09/24 10:46:39;;;;;;;;;;;21.40;74.90;;;;;;5113180;28;19928;-67
2023/09/24 10:49:04;;;;;;;;;;;21.40;74.80;;;;;;5111448;27;19931;-66
2023/09/24 10:51:30;;;;;;;;;;;21.40;74.90;;;;;;5102243;28;19937;-67
2023/09/24 10:54:12;;;;;;;;;;;21.40;74.80;;;;;;5110183;28;20375;-67
2023/09/24 10:56:38;;;;;;;;;;;21.40;74.70;;;;;;5112219;28;19923;-67
2023/09/24 10:59:03;;;;;;;;;;;21.40;74.60;;;;;;5111294;28;19931;-67
2023/09/24 11:01:32;;;;;;;;;;;21.40;74.60;;;;;;5113038;28;19928;-67
2023/09/24 11:03:57;;;;;;;;;;;21.40;74.60;;;;;;5112162;28;19919;-68
2023/09/24 11:06:30;;;;;;;;;;;21.40;74.60;;;;;;5112396;28;20442;-68
2023/09/24 11:09:12;;;;;;;;;;;21.40;74.60;;;;;;5113686;28;20295;-67
2023/09/24 11:11:38;;;;;;;;;;;21.40;74.60;;;;;;5113202;28;20291;-66
2023/09/24 11:14:16;;;;;;;;;;;21.50;74.60;;;;;;5113230;28;20367;-68
2023/09/24 11:16:42;;;;;;;;;;;21.50;74.60;;;;;;5113498;28;20268;-68
2023/09/24 11:19:07;;;;;;;;;;;21.50;74.60;;;;;;5113756;28;20426;-67
2023/09/24 11:21:33;;;;;;;;;;;21.50;74.50;;;;;;5113371;28;20460;-67
2023/09/24 11:23:58;;;;;;;;;;;21.50;74.50;;;;;;5113933;28;19927;-69
2023/09/24 11:26:28;;;;;;;;;;;21.50;74.40;;;;;;5095661;28;19930;-67
2023/09/24 11:28:57;;;;;;;;;;;21.50;74.50;;;;;;5112087;28;19927;-67
2023/09/24 11:31:23;;;;;;;;;;;21.50;74.50;;;;;;5113160;28;19935;-68
2023/09/24 11:33:54;;;;;;;;;;;21.50;74.50;;;;;;5112473;28;20390;-63
2023/09/24 11:36:20;;;;;;;;;;;21.50;74.60;;;;;;5112513;28;19928;-62
2023/09/24 11:38:46;;;;;;;;;;;21.50;74.50;;;;;;5113114;28;19923;-63
2023/09/24 11:41:12;;;;;;;;;;;21.50;74.60;;;;;;5094140;28;19923;-64
2023/09/24 11:43:38;;;;;;;;;;;21.50;74.50;;;;;;5112524;28;20029;-64
2023/09/24 11:46:16;;;;;;;;;;;21.50;74.60;;;;;;5112814;28;19924;-64
2023/09/24 11:48:42;;;;;;;;;;;21.50;74.60;;;;;;5111909;28;20295;-64
2023/09/24 11:51:08;;;;;;;;;;;21.60;74.50;;;;;;5104393;28;20023;-74
2023/09/24 11:53:33;;;;;;;;;;;21.60;74.70;;;;;;5063649;28;20416;-72
2023/09/24 11:55:59;;;;;;;;;;;21.60;74.80;;;;;;5089507;28;19966;-75
2023/09/24 11:58:27;;;;;;;;;;;21.60;74.60;;;;;;5085506;28;19924;-65
2023/09/24 12:00:56;;;;;;;;;;;21.60;74.50;;;;;;5086787;28;20443;-74
2023/09/24 12:03:22;;;;;;;;;;;21.70;74.40;;;;;;5095408;28;20394;-73
2023/09/24 12:05:47;;;;;;;;;;;21.70;74.30;;;;;;5096834;28;19924;-73
2023/09/24 12:08:13;;;;;;;;;;;21.70;74.20;;;;;;5079176;28;19924;-73
2023/09/24 12:10:40;;;;;;;;;;;21.70;74.10;;;;;;5096149;28;20436;-73
2023/09/24 12:13:06;;;;;;;;;;;21.70;74.10;;;;;;5112222;28;19924;-73
2023/09/24 12:15:31;;;;;;;;;;;21.70;74.00;;;;;;5096897;28;20540;-73
2023/09/24 12:17:57;;;;;;;;;;;21.70;74.00;;;;;;5077638;28;20023;-73
2023/09/24 12:20:23;;;;;;;;;;;21.70;73.80;;;;;;5078937;28;20307;-73
2023/09/24 12:22:49;;;;;;;;;;;21.70;73.80;;;;;;5078816;28;19924;-73
2023/09/24 12:25:14;;;;;;;;;;;21.70;73.80;;;;;;5078254;28;20019;-73
2023/09/24 12:27:40;;;;;;;;;;;21.70;73.70;;;;;;5096289;28;19930;-73
2023/09/24 12:30:07;;;;;;;;;;;21.70;73.60;;;;;;5078465;28;19943;-73
2023/09/24 12:32:34;;;;;;;;;;;21.70;73.60;;;;;;5111860;28;19929;-73
2023/09/24 12:35:01;;;;;;;;;;;21.70;73.60;;;;;;5112511;28;19963;-73
2023/09/24 12:37:28;;;;;;;;;;;21.70;73.50;;;;;;5077326;28;20367;-73
2023/09/24 12:39:54;;;;;;;;;;;21.70;73.40;;;;;;5096416;28;19928;-73
2023/09/24 12:42:20;;;;;;;;;;;21.70;73.40;;;;;;5078012;28;20027;-73
2023/09/24 12:44:45;;;;;;;;;;;21.70;73.40;;;;;;5095448;28;19967;-73
2023/09/24 12:47:11;;;;;;;;;;;21.70;73.40;;;;;;5078527;28;19931;-70
2023/09/24 12:49:37;;;;;;;;;;;21.80;73.10;;;;;;5096126;28;19924;-66
2023/09/24 12:52:04;;;;;;;;;;;21.70;72.60;;;;;;5107896;28;19924;-71
2023/09/24 12:54:30;;;;;;;;;;;21.70;72.80;;;;;;5083897;28;20307;-74
2023/09/24 12:56:57;;;;;;;;;;;21.70;73.20;;;;;;5116590;28;20367;-74
2023/09/24 12:59:24;;;;;;;;;;;21.80;73.50;;;;;;5131987;27;19928;-75
2023/09/24 13:01:50;;;;;;;;;;;21.80;73.60;;;;;;5097813;28;20001;-79
2023/09/24 13:04:15;;;;;;;;;;;21.80;73.70;;;;;;5122366;27;19967;-77
2023/09/24 13:06:47;;;;;;;;;;;21.80;73.50;;;;;;5090480;28;19932;-75
2023/09/24 13:09:16;;;;;;;;;;;21.90;73.60;;;;;;5110834;28;20328;-79
2023/09/24 13:11:45;;;;;;;;;;;21.90;73.70;;;;;;5085170;28;19931;-78
2023/09/24 13:14:11;;;;;;;;;;;21.90;73.70;;;;;;5129861;27;19969;-77
2023/09/24 13:16:37;;;;;;;;;;;21.90;74.20;;;;;;5129743;27;19959;-77
2023/09/24 13:19:02;;;;;;;;;;;22.00;73.50;;;;;;5095901;28;19967;-76
2023/09/24 13:21:28;;;;;;;;;;;22.00;73.40;;;;;;5114728;28;19981;-72
2023/09/24 13:23:53;;;;;;;;;;;22.10;73.50;;;;;;5096982;28;20019;-77
2023/09/24 13:26:19;;;;;;;;;;;22.10;73.30;;;;;;5096598;28;19928;-76
2023/09/24 13:28:44;;;;;;;;;;;22.20;73.40;;;;;;5096382;28;19946;-76
2023/09/24 13:31:10;;;;;;;;;;;22.20;73.30;;;;;;5115299;28;19924;-75
2023/09/24 13:33:35;;;;;;;;;;;22.20;73.20;;;;;;5095449;28;19923;-78
2023/09/24 13:36:01;;;;;;;;;;;22.20;73.10;;;;;;5114951;28;19920;-74
2023/09/24 13:38:26;;;;;;;;;;;22.30;73.10;;;;;;5114335;28;19932;-73
2023/09/24 13:40:52;;;;;;;;;;;22.30;72.90;;;;;;5095604;28;20302;-75
2023/09/24 13:43:17;;;;;;;;;;;22.30;72.80;;;;;;5115187;28;19959;-72
2023/09/24 13:45:43;;;;;;;;;;;22.40;72.70;;;;;;5114764;28;19949;-74
2023/09/24 13:48:10;;;;;;;;;;;22.40;72.70;;;;;;5095927;28;20318;-74
2023/09/24 13:50:35;;;;;;;;;;;22.40;72.60;;;;;;5095734;28;19924;-75
2023/09/24 13:53:01;;;;;;;;;;;22.40;72.50;;;;;;5115043;28;19930;-73
2023/09/24 13:55:27;;;;;;;;;;;22.40;72.40;;;;;;5113611;28;19919;-75
2023/09/24 13:57:52;;;;;;;;;;;22.50;72.40;;;;;;5096003;28;19927;-72
2023/09/24 14:00:18;;;;;;;;;;;22.50;72.40;;;;;;5110343;28;20030;-74
2023/09/24 14:02:44;;;;;;;;;;;22.50;72.30;;;;;;5088357;28;20367;-73
2023/09/24 14:05:10;;;;;;;;;;;22.60;72.30;;;;;;5095298;28;19946;-75
2023/09/24 14:07:35;;;;;;;;;;;22.60;72.20;;;;;;5092686;28;20391;-71
2023/09/24 14:12:45;;;;;;;;;;;22.70;72.00;;;;;;5129699;27;19924;-72
2023/09/24 14:15:11;;;;;;;;;;;22.80;71.90;;;;;;5096066;28;19923;-70